sensor_id;sensor_type;location;lat;lon;timestamp;pressure;altitude;pressure_sealevel;temperature;humidity
26531;BME280;14201;43.188;24.160;2022-08-02T00:02:20;99319.38;;;22.31;58.56
26531;BME280;14201;43.188;24.160;2022-08-02T00:04:46;99311.50;;;22.20;59.55
26531;BME280;14201;43.188;24.160;2022-08-02T00:07:12;99312.59;;;21.98;59.90
26531;BME280;14201;43.188;24.160;2022-08-02T00:09:38;99323.19;;;21.98;59.99
26531;BME280;14201;43.188;24.160;2022-08-02T00:12:03;99319.88;;;21.76;61.07
26531;BME280;14201;43.188;24.160;2022-08-02T00:14:29;99317.88;;;22.02;60.27
26531;BME280;14201;43.188;24.160;2022-08-02T00:16:54;99317.16;;;21.83;60.63
26531;BME280;14201;43.188;24.160;2022-08-02T00:19:20;99327.88;;;21.67;61.21
26531;BME280;14201;43.188;24.160;2022-08-02T00:21:46;99318.19;;;21.64;60.99
26531;BME280;14201;43.188;24.160;2022-08-02T00:24:11;99311.25;;;21.49;61.95
26531;BME280;14201;43.188;24.160;2022-08-02T00:26:37;99321.88;;;21.46;62.06
26531;BME280;14201;43.188;24.160;2022-08-02T00:29:02;99321.66;;;21.74;60.89
26531;BME280;14201;43.188;24.160;2022-08-02T00:31:28;99323.47;;;21.69;61.24
26531;BME280;14201;43.188;24.160;2022-08-02T00:33:54;99324.47;;;21.52;61.77
26531;BME280;14201;43.188;24.160;2022-08-02T00:36:19;99321.00;;;21.41;62.08
26531;BME280;14201;43.188;24.160;2022-08-02T00:38:45;99325.44;;;21.36;62.05
26531;BME280;14201;43.188;24.160;2022-08-02T00:41:14;99322.81;;;21.30;62.90
26531;BME280;14201;43.188;24.160;2022-08-02T00:43:42;99328.13;;;21.33;62.63
26531;BME280;14201;43.188;24.160;2022-08-02T00:46:08;99322.81;;;21.30;62.84
26531;BME280;14201;43.188;24.160;2022-08-02T00:48:34;99329.84;;;21.34;62.45
26531;BME280;14201;43.188;24.160;2022-08-02T00:50:59;99317.47;;;21.40;62.13
26531;BME280;14201;43.188;24.160;2022-08-02T00:53:25;99319.25;;;21.35;62.67
26531;BME280;14201;43.188;24.160;2022-08-02T00:55:51;99319.34;;;21.23;62.92
26531;BME280;14201;43.188;24.160;2022-08-02T00:58:16;99317.56;;;21.19;62.62
26531;BME280;14201;43.188;24.160;2022-08-02T01:00:42;99320.34;;;20.99;63.74
26531;BME280;14201;43.188;24.160;2022-08-02T01:03:08;99320.34;;;20.99;63.54
26531;BME280;14201;43.188;24.160;2022-08-02T01:05:33;99337.16;;;20.96;63.54
26531;BME280;14201;43.188;24.160;2022-08-02T01:07:59;99329.25;;;20.90;63.64
26531;BME280;14201;43.188;24.160;2022-08-02T01:10:24;99331.00;;;20.83;64.20
26531;BME280;14201;43.188;24.160;2022-08-02T01:12:50;99331.03;;;20.79;64.32
26531;BME280;14201;43.188;24.160;2022-08-02T01:15:16;99327.50;;;20.84;64.28
26531;BME280;14201;43.188;24.160;2022-08-02T01:23:27;99325.75;;;20.79;64.45
26531;BME280;14201;43.188;24.160;2022-08-02T01:28:57;99327.50;;;20.84;64.00
26531;BME280;14201;43.188;24.160;2022-08-02T01:31:32;99332.81;;;20.78;64.48
26531;BME280;14201;43.188;24.160;2022-08-02T01:34:05;99332.78;;;20.81;64.49
26531;BME280;14201;43.188;24.160;2022-08-02T01:36:43;99339.81;;;20.89;63.99
26531;BME280;14201;43.188;24.160;2022-08-02T01:39:12;99336.31;;;20.82;64.18
26531;BME280;14201;43.188;24.160;2022-08-02T01:41:40;99331.03;;;20.77;64.31
26531;BME280;14201;43.188;24.160;2022-08-02T01:44:09;99324.03;;;20.55;64.42
26531;BME280;14201;43.188;24.160;2022-08-02T01:46:39;99331.06;;;20.71;64.11
26531;BME280;14201;43.188;24.160;2022-08-02T01:49:09;99327.56;;;20.64;64.56
26531;BME280;14201;43.188;24.160;2022-08-02T01:51:38;99328.44;;;20.56;64.55
26531;BME280;14201;43.188;24.160;2022-08-02T01:54:25;99330.25;;;20.38;65.45
26531;BME280;14201;43.188;24.160;2022-08-02T01:56:55;99340.84;;;20.41;65.35
26531;BME280;14201;43.188;24.160;2022-08-02T01:59:22;99327.63;;;20.32;65.94
26531;BME280;14201;43.188;24.160;2022-08-02T02:01:51;99324.94;;;20.43;65.40
26531;BME280;14201;43.188;24.160;2022-08-02T02:04:20;99325.81;;;20.54;64.96
26531;BME280;14201;43.188;24.160;2022-08-02T02:06:46;99330.22;;;20.61;64.90
26531;BME280;14201;43.188;24.160;2022-08-02T02:09:14;99317.88;;;20.60;64.92
26531;BME280;14201;43.188;24.160;2022-08-02T02:11:46;99318.75;;;20.52;65.04
26531;BME280;14201;43.188;24.160;2022-08-02T02:14:13;99317.00;;;20.60;64.68
26531;BME280;14201;43.188;24.160;2022-08-02T02:16:40;99313.53;;;20.29;65.75
26531;BME280;14201;43.188;24.160;2022-08-02T02:19:08;99318.84;;;20.21;65.65
26531;BME280;14201;43.188;24.160;2022-08-02T02:21:33;99325.91;;;20.19;66.03
26531;BME280;14201;43.188;24.160;2022-08-02T02:23:59;99317.06;;;20.20;66.18
26531;BME280;14201;43.188;24.160;2022-08-02T02:26:26;99318.00;;;20.05;65.45
26531;BME280;14201;43.188;24.160;2022-08-02T02:28:53;99327.69;;;19.83;67.21
26531;BME280;14201;43.188;24.160;2022-08-02T02:31:20;99330.34;;;19.94;66.81
26531;BME280;14201;43.188;24.160;2022-08-02T02:34:00;99325.06;;;19.88;67.17
26531;BME280;14201;43.188;24.160;2022-08-02T02:36:27;99342.63;;;19.55;68.13
26531;BME280;14201;43.188;24.160;2022-08-02T02:38:56;99345.25;;;19.38;68.95
26531;BME280;14201;43.188;24.160;2022-08-02T02:41:24;99339.06;;;19.26;70.22
26531;BME280;14201;43.188;24.160;2022-08-02T02:43:53;99339.06;;;19.28;70.16
26531;BME280;14201;43.188;24.160;2022-08-02T02:46:20;99340.84;;;19.47;69.43
26531;BME280;14201;43.188;24.160;2022-08-02T02:48:48;99342.59;;;19.44;70.56
26531;BME280;14201;43.188;24.160;2022-08-02T02:51:16;99354.09;;;19.64;69.56
26531;BME280;14201;43.188;24.160;2022-08-02T02:53:43;99345.28;;;19.68;68.88
26531;BME280;14201;43.188;24.160;2022-08-02T02:56:11;99344.41;;;19.71;69.11
26531;BME280;14201;43.188;24.160;2022-08-02T02:58:38;99342.69;;;19.79;68.47
26531;BME280;14201;43.188;24.160;2022-08-02T03:01:04;99342.66;;;19.90;68.33
26531;BME280;14201;43.188;24.160;2022-08-02T03:03:50;99342.66;;;19.98;68.02
26531;BME280;14201;43.188;24.160;2022-08-02T03:06:16;99344.41;;;20.00;67.91
26531;BME280;14201;43.188;24.160;2022-08-02T03:08:42;99340.88;;;20.06;67.46
26531;BME280;14201;43.188;24.160;2022-08-02T03:11:09;99342.66;;;20.02;67.92
26531;BME280;14201;43.188;24.160;2022-08-02T03:13:36;99342.69;;;20.01;68.01
26531;BME280;14201;43.188;24.160;2022-08-02T03:16:02;99340.03;;;19.93;68.06
26531;BME280;14201;43.188;24.160;2022-08-02T03:18:33;99334.72;;;19.70;69.16
26531;BME280;14201;43.188;24.160;2022-08-02T03:21:03;99340.88;;;19.58;69.61
26531;BME280;14201;43.188;24.160;2022-08-02T03:23:29;99339.16;;;19.76;69.24
26531;BME280;14201;43.188;24.160;2022-08-02T03:25:55;99336.47;;;19.51;69.69
26531;BME280;14201;43.188;24.160;2022-08-02T03:28:21;99340.81;;;19.24;70.43
26531;BME280;14201;43.188;24.160;2022-08-02T03:30:46;99338.19;;;19.40;70.57
26531;BME280;14201;43.188;24.160;2022-08-02T03:33:12;99344.31;;;19.13;71.24
26531;BME280;14201;43.188;24.160;2022-08-02T03:35:40;99356.44;;;18.78;73.26
26531;BME280;14201;43.188;24.160;2022-08-02T03:38:07;99357.28;;;18.68;73.73
26531;BME280;14201;43.188;24.160;2022-08-02T03:40:35;99369.47;;;18.47;74.92
26531;BME280;14201;43.188;24.160;2022-08-02T03:43:01;99368.03;;;18.99;73.46
26531;BME280;14201;43.188;24.160;2022-08-02T03:45:27;99365.47;;;19.28;71.92
26531;BME280;14201;43.188;24.160;2022-08-02T03:47:54;99368.16;;;19.45;71.14
26531;BME280;14201;43.188;24.160;2022-08-02T03:50:21;99372.56;;;19.61;70.77
26531;BME280;14201;43.188;24.160;2022-08-02T03:52:47;99379.69;;;19.84;70.25
26531;BME280;14201;43.188;24.160;2022-08-02T03:55:13;99379.69;;;19.93;70.14
26531;BME280;14201;43.188;24.160;2022-08-02T03:57:40;99384.97;;;20.02;69.47
26531;BME280;14201;43.188;24.160;2022-08-02T04:00:08;99389.38;;;19.97;69.96
26531;BME280;14201;43.188;24.160;2022-08-02T04:02:35;99379.69;;;20.01;69.87
26531;BME280;14201;43.188;24.160;2022-08-02T04:05:00;99379.66;;;20.18;69.30
26531;BME280;14201;43.188;24.160;2022-08-02T04:07:26;99381.44;;;20.08;69.79
26531;BME280;14201;43.188;24.160;2022-08-02T04:09:51;99384.97;;;19.92;70.65
26531;BME280;14201;43.188;24.160;2022-08-02T04:12:17;99390.25;;;19.75;71.53
26531;BME280;14201;43.188;24.160;2022-08-02T04:14:43;99387.56;;;19.68;71.31
26531;BME280;14201;43.188;24.160;2022-08-02T04:17:10;99392.03;;;19.91;71.04
26531;BME280;14201;43.188;24.160;2022-08-02T04:19:42;99393.78;;;20.11;70.38
26531;BME280;14201;43.188;24.160;2022-08-02T04:22:13;99396.41;;;20.06;69.91
26531;BME280;14201;43.188;24.160;2022-08-02T04:24:44;99399.94;;;20.40;68.78
26531;BME280;14201;43.188;24.160;2022-08-02T04:27:12;99396.38;;;20.51;68.42
26531;BME280;14201;43.188;24.160;2022-08-02T04:29:39;99398.16;;;20.61;69.08
26531;BME280;14201;43.188;24.160;2022-08-02T04:32:05;99396.34;;;20.78;68.05
26531;BME280;14201;43.188;24.160;2022-08-02T04:34:32;99387.47;;;20.96;66.90
26531;BME280;14201;43.188;24.160;2022-08-02T04:36:58;99392.72;;;21.04;66.95
26531;BME280;14201;43.188;24.160;2022-08-02T04:39:25;99394.34;;;21.30;66.75
26531;BME280;14201;43.188;24.160;2022-08-02T04:41:50;99388.97;;;21.53;66.75
26531;BME280;14201;43.188;24.160;2022-08-02T04:44:16;99386.25;;;21.63;65.31
26531;BME280;14201;43.188;24.160;2022-08-02T04:46:43;99388.72;;;21.87;64.02
26531;BME280;14201;43.188;24.160;2022-08-02T04:49:09;99393.03;;;22.00;63.82
26531;BME280;14201;43.188;24.160;2022-08-02T04:51:39;99392.88;;;22.18;63.99
26531;BME280;14201;43.188;24.160;2022-08-02T04:54:06;99397.16;;;22.35;62.58
26531;BME280;14201;43.188;24.160;2022-08-02T04:56:32;99394.41;;;22.47;61.72
26531;BME280;14201;43.188;24.160;2022-08-02T04:58:57;99398.63;;;22.67;61.78
26531;BME280;14201;43.188;24.160;2022-08-02T05:01:23;99403.03;;;22.71;62.44
26531;BME280;14201;43.188;24.160;2022-08-02T05:03:49;99399.13;;;23.03;61.06
26531;BME280;14201;43.188;24.160;2022-08-02T05:06:14;99398.94;;;23.18;58.22
26531;BME280;14201;43.188;24.160;2022-08-02T05:08:40;99394.47;;;23.22;56.33
26531;BME280;14201;43.188;24.160;2022-08-02T05:11:06;99401.38;;;23.35;56.24
26531;BME280;14201;43.188;24.160;2022-08-02T05:13:32;99397.25;;;23.73;55.14
26531;BME280;14201;43.188;24.160;2022-08-02T05:15:57;99396.00;;;24.00;54.14
26531;BME280;14201;43.188;24.160;2022-08-02T05:18:26;99399.88;;;23.76;54.37
26531;BME280;14201;43.188;24.160;2022-08-02T05:20:53;99404.00;;;23.98;53.66
26531;BME280;14201;43.188;24.160;2022-08-02T05:23:18;99411.78;;;24.11;53.30
26531;BME280;14201;43.188;24.160;2022-08-02T05:25:44;99417.66;;;24.31;52.52
26531;BME280;14201;43.188;24.160;2022-08-02T05:28:10;99412.81;;;24.55;51.85
26531;BME280;14201;43.188;24.160;2022-08-02T05:30:35;99410.44;;;24.36;51.69
26531;BME280;14201;43.188;24.160;2022-08-02T05:33:01;99415.22;;;24.70;50.67
26531;BME280;14201;43.188;24.160;2022-08-02T05:35:26;99420.25;;;24.86;50.97
26531;BME280;14201;43.188;24.160;2022-08-02T05:37:52;99420.16;;;24.89;50.92
26531;BME280;14201;43.188;24.160;2022-08-02T05:40:18;99417.69;;;24.80;52.69
26531;BME280;14201;43.188;24.160;2022-08-02T05:42:44;99414.91;;;24.86;50.77
26531;BME280;14201;43.188;24.160;2022-08-02T05:45:10;99423.13;;;25.19;49.95
26531;BME280;14201;43.188;24.160;2022-08-02T05:47:36;99422.47;;;25.07;50.17
26531;BME280;14201;43.188;24.160;2022-08-02T05:50:04;99430.06;;;25.69;48.85
26531;BME280;14201;43.188;24.160;2022-08-02T05:53:02;99427.94;;;25.84;48.34
26531;BME280;14201;43.188;24.160;2022-08-02T05:55:42;99435.72;;;25.95;47.17
26531;BME280;14201;43.188;24.160;2022-08-02T05:58:24;99429.84;;;25.79;48.68
26531;BME280;14201;43.188;24.160;2022-08-02T06:00:54;99431.13;;;26.00;48.83
26531;BME280;14201;43.188;24.160;2022-08-02T06:03:25;99433.44;;;26.15;47.41
26531;BME280;14201;43.188;24.160;2022-08-02T06:06:13;99443.00;;;26.60;46.93
26531;BME280;14201;43.188;24.160;2022-08-02T06:08:49;99447.13;;;27.04;45.02
26531;BME280;14201;43.188;24.160;2022-08-02T06:11:23;99443.34;;;26.80;45.33
26531;BME280;14201;43.188;24.160;2022-08-02T06:13:50;99438.84;;;26.82;45.57
26531;BME280;14201;43.188;24.160;2022-08-02T06:16:18;99451.53;;;27.07;45.13
26531;BME280;14201;43.188;24.160;2022-08-02T06:18:44;99456.25;;;27.60;45.17
26531;BME280;14201;43.188;24.160;2022-08-02T06:21:12;99450.34;;;27.78;43.40
26531;BME280;14201;43.188;24.160;2022-08-02T06:23:41;99461.63;;;28.16;43.14
26531;BME280;14201;43.188;24.160;2022-08-02T06:26:12;99458.09;;;28.16;42.94
26531;BME280;14201;43.188;24.160;2022-08-02T06:28:38;99460.91;;;28.38;42.54
26531;BME280;14201;43.188;24.160;2022-08-02T06:31:07;99464.56;;;27.80;43.06
26531;BME280;14201;43.188;24.160;2022-08-02T06:33:33;99457.75;;;27.39;44.07
26531;BME280;14201;43.188;24.160;2022-08-02T06:39:03;99471.41;;;27.91;43.87
26531;BME280;14201;43.188;24.160;2022-08-02T06:41:40;99476.97;;;27.83;43.85
26531;BME280;14201;43.188;24.160;2022-08-02T06:44:07;99477.84;;;28.13;43.18
26531;BME280;14201;43.188;24.160;2022-08-02T06:46:33;99477.50;;;27.35;44.40
26531;BME280;14201;43.188;24.160;2022-08-02T06:49:00;99470.13;;;27.43;44.47
26531;BME280;14201;43.188;24.160;2022-08-02T06:51:26;99476.09;;;27.82;43.84
26531;BME280;14201;43.188;24.160;2022-08-02T06:53:52;99467.81;;;27.30;44.51
26531;BME280;14201;43.188;24.160;2022-08-02T06:56:17;99472.94;;;27.68;45.08
26531;BME280;14201;43.188;24.160;2022-08-02T06:58:44;99468.56;;;27.36;45.13
26531;BME280;14201;43.188;24.160;2022-08-02T07:01:09;99478.22;;;27.71;44.46
26531;BME280;14201;43.188;24.160;2022-08-02T07:03:38;99475.25;;;27.80;44.48
26531;BME280;14201;43.188;24.160;2022-08-02T07:06:05;99478.25;;;27.99;43.35
26531;BME280;14201;43.188;24.160;2022-08-02T07:08:31;99482.75;;;27.69;44.19
26531;BME280;14201;43.188;24.160;2022-08-02T07:11:01;99478.13;;;28.04;43.29
26531;BME280;14201;43.188;24.160;2022-08-02T07:13:27;99473.50;;;28.36;42.45
26531;BME280;14201;43.188;24.160;2022-08-02T07:15:53;99470.28;;;28.24;43.43
26531;BME280;14201;43.188;24.160;2022-08-02T07:18:20;99474.84;;;27.94;43.76
26531;BME280;14201;43.188;24.160;2022-08-02T07:20:46;99482.38;;;28.64;42.77
26531;BME280;14201;43.188;24.160;2022-08-02T07:23:12;99476.22;;;29.38;43.26
26531;BME280;14201;43.188;24.160;2022-08-02T07:25:37;99485.22;;;30.06;40.85
26531;BME280;14201;43.188;24.160;2022-08-02T07:28:03;99499.75;;;30.67;40.05
26531;BME280;14201;43.188;24.160;2022-08-02T07:30:28;99490.28;;;31.00;39.07
26531;BME280;14201;43.188;24.160;2022-08-02T07:32:55;99490.72;;;31.10;37.85
26531;BME280;14201;43.188;24.160;2022-08-02T07:35:21;99484.41;;;31.11;37.29
26531;BME280;14201;43.188;24.160;2022-08-02T07:37:46;99488.09;;;31.29;37.42
26531;BME280;14201;43.188;24.160;2022-08-02T07:40:13;99485.63;;;31.64;37.74
26531;BME280;14201;43.188;24.160;2022-08-02T07:42:39;99486.28;;;32.07;35.94
26531;BME280;14201;43.188;24.160;2022-08-02T07:45:04;99484.91;;;32.52;35.98
26531;BME280;14201;43.188;24.160;2022-08-02T07:47:30;99486.84;;;32.85;34.99
26531;BME280;14201;43.188;24.160;2022-08-02T07:49:55;99481.75;;;33.31;33.77
26531;BME280;14201;43.188;24.160;2022-08-02T07:52:21;99486.41;;;33.61;34.01
26531;BME280;14201;43.188;24.160;2022-08-02T07:54:47;99483.81;;;33.09;33.92
26531;BME280;14201;43.188;24.160;2022-08-02T07:57:12;99484.69;;;33.60;33.39
26531;BME280;14201;43.188;24.160;2022-08-02T07:59:38;99487.16;;;33.65;33.21
26531;BME280;14201;43.188;24.160;2022-08-02T08:02:04;99489.78;;;33.82;32.83
26531;BME280;14201;43.188;24.160;2022-08-02T08:04:29;99482.78;;;34.10;32.02
26531;BME280;14201;43.188;24.160;2022-08-02T08:06:55;99483.31;;;33.85;32.46
26531;BME280;14201;43.188;24.160;2022-08-02T08:09:21;99490.19;;;33.25;32.56
26531;BME280;14201;43.188;24.160;2022-08-02T08:11:46;99489.44;;;33.88;33.72
26531;BME280;14201;43.188;24.160;2022-08-02T08:14:13;99492.28;;;34.49;31.75
26531;BME280;14201;43.188;24.160;2022-08-02T08:16:39;99483.66;;;34.88;31.82
26531;BME280;14201;43.188;24.160;2022-08-02T08:19:04;99486.34;;;35.03;30.21
26531;BME280;14201;43.188;24.160;2022-08-02T08:21:30;99481.28;;;34.52;31.26
26531;BME280;14201;43.188;24.160;2022-08-02T08:23:56;99479.13;;;33.79;31.94
26531;BME280;14201;43.188;24.160;2022-08-02T08:26:22;99482.38;;;34.02;32.27
26531;BME280;14201;43.188;24.160;2022-08-02T08:28:49;99469.69;;;34.50;32.31
26531;BME280;14201;43.188;24.160;2022-08-02T08:31:14;99480.94;;;34.88;32.50
26531;BME280;14201;43.188;24.160;2022-08-02T08:33:40;99476.38;;;35.48;31.18
26531;BME280;14201;43.188;24.160;2022-08-02T08:36:06;99474.03;;;35.27;31.18
26531;BME280;14201;43.188;24.160;2022-08-02T08:38:32;99477.53;;;35.29;30.07
26531;BME280;14201;43.188;24.160;2022-08-02T08:40:58;99462.06;;;34.26;30.34
26531;BME280;14201;43.188;24.160;2022-08-02T08:43:23;99465.38;;;32.30;33.89
26531;BME280;14201;43.188;24.160;2022-08-02T08:45:49;99456.22;;;32.34;34.14
26531;BME280;14201;43.188;24.160;2022-08-02T08:48:16;99449.81;;;32.89;32.55
26531;BME280;14201;43.188;24.160;2022-08-02T08:50:46;99450.19;;;32.99;33.20
26531;BME280;14201;43.188;24.160;2022-08-02T08:53:14;99453.03;;;33.13;33.75
26531;BME280;14201;43.188;24.160;2022-08-02T08:55:40;99456.97;;;34.04;33.03
26531;BME280;14201;43.188;24.160;2022-08-02T08:58:06;99461.28;;;34.70;32.00
26531;BME280;14201;43.188;24.160;2022-08-02T09:00:32;99460.53;;;34.83;30.61
26531;BME280;14201;43.188;24.160;2022-08-02T09:02:58;99457.56;;;35.16;31.20
26531;BME280;14201;43.188;24.160;2022-08-02T09:05:26;99453.53;;;35.23;30.19
26531;BME280;14201;43.188;24.160;2022-08-02T09:07:53;99463.97;;;35.15;29.91
26531;BME280;14201;43.188;24.160;2022-08-02T09:13:23;99461.72;;;35.65;31.51
26531;BME280;14201;43.188;24.160;2022-08-02T09:15:58;99455.19;;;35.96;28.86
26531;BME280;14201;43.188;24.160;2022-08-02T09:18:35;99459.72;;;36.10;28.87
26531;BME280;14201;43.188;24.160;2022-08-02T09:21:08;99452.19;;;36.01;28.88
26531;BME280;14201;43.188;24.160;2022-08-02T09:23:43;99450.91;;;35.79;28.81
26531;BME280;14201;43.188;24.160;2022-08-02T09:26:15;99450.31;;;35.17;29.31
26531;BME280;14201;43.188;24.160;2022-08-02T09:28:43;99451.31;;;34.25;29.97
26531;BME280;14201;43.188;24.160;2022-08-02T09:31:19;99449.63;;;34.38;30.10
26531;BME280;14201;43.188;24.160;2022-08-02T09:33:51;99451.25;;;34.26;30.76
26531;BME280;14201;43.188;24.160;2022-08-02T09:36:18;99446.84;;;34.08;31.64
26531;BME280;14201;43.188;24.160;2022-08-02T09:39:01;99431.69;;;34.05;32.05
26531;BME280;14201;43.188;24.160;2022-08-02T09:41:29;99436.41;;;34.02;31.81
26531;BME280;14201;43.188;24.160;2022-08-02T09:43:56;99436.94;;;34.08;32.36
26531;BME280;14201;43.188;24.160;2022-08-02T09:46:26;99434.66;;;33.85;31.67
26531;BME280;14201;43.188;24.160;2022-08-02T09:49:02;99430.50;;;33.95;31.95
26531;BME280;14201;43.188;24.160;2022-08-02T09:51:32;99442.44;;;34.53;33.08
26531;BME280;14201;43.188;24.160;2022-08-02T09:54:06;99435.09;;;34.85;31.08
26531;BME280;14201;43.188;24.160;2022-08-02T09:56:42;99437.47;;;35.35;31.10
26531;BME280;14201;43.188;24.160;2022-08-02T09:59:09;99432.00;;;35.78;30.09
26531;BME280;14201;43.188;24.160;2022-08-02T10:01:36;99435.66;;;36.45;29.20
26531;BME280;14201;43.188;24.160;2022-08-02T10:04:04;99443.34;;;34.98;29.54
26531;BME280;14201;43.188;24.160;2022-08-02T10:06:31;99432.25;;;35.32;30.03
26531;BME280;14201;43.188;24.160;2022-08-02T10:08:58;99430.19;;;36.05;30.35
26531;BME280;14201;43.188;24.160;2022-08-02T10:11:24;99435.38;;;36.63;28.99
26531;BME280;14201;43.188;24.160;2022-08-02T10:13:50;99431.31;;;37.21;27.75
26531;BME280;14201;43.188;24.160;2022-08-02T10:16:17;99432.25;;;37.46;27.91
26531;BME280;14201;43.188;24.160;2022-08-02T10:18:45;99431.03;;;36.60;28.53
26531;BME280;14201;43.188;24.160;2022-08-02T10:21:12;99425.91;;;35.74;27.69
26531;BME280;14201;43.188;24.160;2022-08-02T10:23:38;99419.13;;;36.08;28.76
26531;BME280;14201;43.188;24.160;2022-08-02T10:26:04;99419.28;;;36.47;28.50
26531;BME280;14201;43.188;24.160;2022-08-02T10:28:31;99419.06;;;35.96;27.94
26531;BME280;14201;43.188;24.160;2022-08-02T10:31:01;99415.88;;;34.90;30.03
26531;BME280;14201;43.188;24.160;2022-08-02T10:33:27;99414.97;;;34.89;29.37
26531;BME280;14201;43.188;24.160;2022-08-02T10:35:54;99412.19;;;35.34;29.91
26531;BME280;14201;43.188;24.160;2022-08-02T10:38:22;99420.41;;;35.76;28.61
26531;BME280;14201;43.188;24.160;2022-08-02T10:40:57;99413.47;;;35.99;29.68
26531;BME280;14201;43.188;24.160;2022-08-02T10:43:43;99410.09;;;35.81;28.77
26531;BME280;14201;43.188;24.160;2022-08-02T10:46:27;99413.38;;;36.00;28.96
26531;BME280;14201;43.188;24.160;2022-08-02T10:52:12;99404.72;;;36.08;28.99
26531;BME280;14201;43.188;24.160;2022-08-02T10:54:16;99410.84;;;36.24;28.59
26531;BME280;14201;43.188;24.160;2022-08-02T10:56:44;99413.72;;;36.36;27.29
26531;BME280;14201;43.188;24.160;2022-08-02T10:59:31;99408.09;;;36.52;27.58
26531;BME280;14201;43.188;24.160;2022-08-02T11:01:56;99406.75;;;36.84;28.22
26531;BME280;14201;43.188;24.160;2022-08-02T11:04:29;99397.59;;;37.24;27.35
26531;BME280;14201;43.188;24.160;2022-08-02T11:07:55;99402.13;;;37.62;27.78
26531;BME280;14201;43.188;24.160;2022-08-02T11:09:49;99397.75;;;37.22;26.64
26531;BME280;14201;43.188;24.160;2022-08-02T11:12:18;99390.84;;;37.30;27.28
26531;BME280;14201;43.188;24.160;2022-08-02T11:14:45;99394.31;;;36.55;27.31
26531;BME280;14201;43.188;24.160;2022-08-02T11:17:22;99387.69;;;35.64;27.96
26531;BME280;14201;43.188;24.160;2022-08-02T11:22:31;99391.06;;;36.62;26.67
26531;BME280;14201;43.188;24.160;2022-08-02T11:24:57;99388.31;;;35.12;28.70
26531;BME280;14201;43.188;24.160;2022-08-02T11:27:42;99384.66;;;35.27;28.75
26531;BME280;14201;43.188;24.160;2022-08-02T11:30:11;99376.44;;;35.29;29.05
26531;BME280;14201;43.188;24.160;2022-08-02T11:32:37;99383.38;;;36.16;27.35
26531;BME280;14201;43.188;24.160;2022-08-02T11:35:02;99383.41;;;36.02;27.17
26531;BME280;14201;43.188;24.160;2022-08-02T11:39:53;99383.69;;;34.55;28.90
26531;BME280;14201;43.188;24.160;2022-08-02T11:42:18;99382.50;;;34.89;28.89
26531;BME280;14201;43.188;24.160;2022-08-02T11:44:44;99381.91;;;35.42;29.08
26531;BME280;14201;43.188;24.160;2022-08-02T11:47:10;99387.47;;;35.82;28.58
26531;BME280;14201;43.188;24.160;2022-08-02T11:49:36;99390.69;;;36.01;28.10
26531;BME280;14201;43.188;24.160;2022-08-02T11:52:06;99391.16;;;36.08;28.10
26531;BME280;14201;43.188;24.160;2022-08-02T11:57:14;99387.19;;;35.99;27.96
26531;BME280;14201;43.188;24.160;2022-08-02T11:59:41;99376.94;;;36.04;28.55
26531;BME280;14201;43.188;24.160;2022-08-02T12:02:07;99378.63;;;36.20;28.47
26531;BME280;14201;43.188;24.160;2022-08-02T12:04:33;99381.38;;;36.58;28.24
26531;BME280;14201;43.188;24.160;2022-08-02T12:06:59;99378.47;;;35.81;27.60
26531;BME280;14201;43.188;24.160;2022-08-02T12:09:25;99366.34;;;36.27;27.33
26531;BME280;14201;43.188;24.160;2022-08-02T12:11:51;99368.06;;;36.68;26.47
26531;BME280;14201;43.188;24.160;2022-08-02T12:14:17;99367.66;;;36.74;26.98
26531;BME280;14201;43.188;24.160;2022-08-02T12:16:43;99366.19;;;36.56;26.81
26531;BME280;14201;43.188;24.160;2022-08-02T12:19:27;99368.91;;;36.56;27.78
26531;BME280;14201;43.188;24.160;2022-08-02T12:24:37;99362.91;;;36.51;26.63
26531;BME280;14201;43.188;24.160;2022-08-02T12:27:03;99365.31;;;36.15;27.46
26531;BME280;14201;43.188;24.160;2022-08-02T12:29:32;99360.63;;;36.44;27.88
26531;BME280;14201;43.188;24.160;2022-08-02T12:31:58;99360.75;;;36.56;26.74
26531;BME280;14201;43.188;24.160;2022-08-02T12:34:24;99358.81;;;37.22;25.16
26531;BME280;14201;43.188;24.160;2022-08-02T12:36:56;99354.97;;;37.37;26.98
26531;BME280;14201;43.188;24.160;2022-08-02T12:39:31;99357.31;;;37.55;26.71
26531;BME280;14201;43.188;24.160;2022-08-02T12:41:57;99349.53;;;37.74;25.71
26531;BME280;14201;43.188;24.160;2022-08-02T12:44:22;99348.91;;;36.44;26.10
26531;BME280;14201;43.188;24.160;2022-08-02T12:46:57;99345.84;;;36.23;27.22
26531;BME280;14201;43.188;24.160;2022-08-02T12:49:22;99339.63;;;36.87;26.57
26531;BME280;14201;43.188;24.160;2022-08-02T12:51:47;99338.97;;;36.96;26.24
26531;BME280;14201;43.188;24.160;2022-08-02T12:54:21;99341.22;;;37.02;26.10
26531;BME280;14201;43.188;24.160;2022-08-02T12:56:47;99343.63;;;36.94;26.70
26531;BME280;14201;43.188;24.160;2022-08-02T12:59:13;99340.06;;;36.80;26.19
26531;BME280;14201;43.188;24.160;2022-08-02T13:01:38;99334.94;;;36.63;25.56
26531;BME280;14201;43.188;24.160;2022-08-02T13:04:04;99336.63;;;35.85;26.20
26531;BME280;14201;43.188;24.160;2022-08-02T13:06:30;99336.06;;;35.39;27.74
26531;BME280;14201;43.188;24.160;2022-08-02T13:08:55;99333.81;;;35.45;27.51
26531;BME280;14201;43.188;24.160;2022-08-02T13:11:22;99328.88;;;35.52;27.95
26531;BME280;14201;43.188;24.160;2022-08-02T13:13:48;99331.94;;;35.60;27.61
26531;BME280;14201;43.188;24.160;2022-08-02T13:16:13;99328.47;;;35.58;27.62
26531;BME280;14201;43.188;24.160;2022-08-02T13:18:39;99327.03;;;34.82;28.23
26531;BME280;14201;43.188;24.160;2022-08-02T13:21:05;99335.50;;;34.76;28.56
26531;BME280;14201;43.188;24.160;2022-08-02T13:23:34;99328.19;;;35.21;28.14